Avon, Maine
Current Conditions -  °F | °C
As of 11:15 AM on Wednesday 26 Nov 2014 (Local Time) from KWVL Reporting Station
Clear Clear  
Wind Chill: -1°   Ceiling: Unl
Heat Index:   Visibility: 10mi
Dew Point: -6°   Wind: 9mph
Humidity: 52%   Direction: 360°N
Pressure: 30.14"   Gusts: NA
Location:  44.8921°N, 70.379°W
Report Text: KWVL 261615Z 36008KT 10SM CLR 03/M06 A3014 RMK AO1
Loading
Personal Weather Stations






























Interactive Weather Map New forecast layout! Learn more

10-Day Weather Forecast

Advertisements
Track Severe Weather on mobile